Etusivu
METAR-TAF:

METAR-TAF

Lentoasemat :

Grant County Airport

Silver City, New Mexico, Yhdysvallat

Leveyspiiri: 32-38N, Pituuspiiri: 108-09W, korkeus merenpinnasta: 1659 m

Tämänhetkinen sää

Tämä raportti tehtiin 1 tunti ja 28 minuuttia sitten, kello 03.35 UTC
Tuuli 4 kn luoteesta
Lämpötila 3°C
Kosteus 35%
Ilmanpaine 1017 hPa
Näkyvyys: 16.1 km
selkeää

METAR: KSVC 270335Z AUTO 32004KT 10SM CLR 03/M11 A3003 RMK AO2 T00341108

Aika: 22:03 (05:03 UTC)


TAF: puuttuu

Säähavainnot ja -ennusteet yli 4000 lentoasemalta (METAR- ja TAF-raportit).

Käytössä olevat sääasemat on merkitty karttaan keltaisilla ja punaisilla pisteillä.

Aseta hiiri pisteen päälle nähdäksesi sääaseman nimen.

Klikkaa sitten nähdäksesi säähavainnot ja -ennusteet.

Kartan vaihtaminen: klikkaa mustalla rastilla varustettuja vihreitä pisteitä, niin voit zoomata sisään; viivalla varustettua vihreää pistettä, niin voit zoomata ulos tai vihreitä nuolia, niin pääset viereisille kartoille.


METAR-TAF: